createdAt,value
2022-09-06T00:00:58.774Z,2.00
2022-09-06T00:03:28.072Z,2.65
2022-09-06T00:05:55.107Z,2.00
2022-09-06T00:08:21.781Z,2.35
2022-09-06T00:10:48.384Z,2.70
2022-09-06T00:13:14.953Z,2.30
2022-09-06T00:15:41.635Z,2.20
2022-09-06T00:18:08.630Z,2.15
2022-09-06T00:20:41.274Z,2.50
2022-09-06T00:23:08.473Z,1.83
2022-09-06T00:25:35.438Z,2.30
2022-09-06T00:28:06.325Z,2.30
2022-09-06T00:30:33.820Z,2.30
2022-09-06T00:33:00.367Z,2.22
2022-09-06T00:35:27.947Z,2.40
2022-09-06T00:37:59.380Z,2.33
2022-09-06T00:40:27.522Z,2.15
2022-09-06T00:42:54.040Z,2.10
2022-09-06T00:45:21.174Z,2.20
2022-09-06T00:47:48.668Z,2.00
2022-09-06T00:50:18.970Z,2.05
2022-09-06T00:52:48.952Z,2.00
2022-09-06T00:55:16.249Z,1.98
2022-09-06T00:57:43.839Z,2.30
2022-09-06T01:00:10.658Z,2.17
2022-09-06T01:02:37.435Z,2.17
2022-09-06T01:05:05.571Z,2.75
2022-09-06T01:07:35.051Z,2.63
2022-09-06T01:10:25.659Z,2.25
2022-09-06T01:13:05.610Z,2.60
2022-09-06T01:15:52.359Z,2.42
2022-09-06T01:18:31.337Z,4.00
2022-09-06T01:21:25.837Z,3.65
2022-09-06T01:23:55.480Z,2.72
2022-09-06T01:26:28.007Z,3.05
2022-09-06T01:28:55.029Z,3.28
2022-09-06T01:31:42.134Z,3.40
2022-09-06T01:34:08.625Z,3.80
2022-09-06T01:37:06.597Z,3.95
2022-09-06T01:39:36.585Z,3.15
2022-09-06T01:42:17.737Z,4.65
2022-09-06T01:44:53.673Z,3.45
2022-09-06T01:47:28.583Z,3.47
2022-09-06T01:50:33.617Z,3.80
2022-09-06T01:53:09.579Z,3.65
2022-09-06T01:56:18.947Z,3.60
2022-09-06T01:59:30.138Z,4.38
2022-09-06T02:02:12.935Z,4.60
2022-09-06T02:04:47.509Z,4.28
2022-09-06T02:07:26.360Z,4.85
2022-09-06T02:09:59.052Z,4.18
2022-09-06T02:12:29.697Z,4.95
2022-09-06T02:15:00.817Z,4.82
2022-09-06T02:17:32.305Z,5.07
2022-09-06T02:20:04.883Z,7.15
2022-09-06T02:22:36.196Z,5.35
2022-09-06T02:25:07.287Z,4.88
2022-09-06T02:27:34.415Z,5.28
2022-09-06T02:30:03.049Z,6.18
2022-09-06T02:32:32.268Z,5.38
2022-09-06T02:34:59.008Z,5.40
2022-09-06T02:37:28.564Z,5.32
2022-09-06T02:39:55.968Z,6.90
2022-09-06T02:42:24.173Z,5.45
2022-09-06T02:44:50.706Z,5.28
2022-09-06T02:47:17.480Z,6.03
2022-09-06T02:49:44.100Z,4.43
2022-09-06T02:52:10.680Z,4.57
2022-09-06T02:54:37.212Z,5.00
2022-09-06T02:57:03.899Z,4.20
2022-09-06T02:59:30.465Z,5.07
2022-09-06T03:01:57.127Z,4.70
2022-09-06T03:04:23.715Z,4.35
2022-09-06T03:06:50.360Z,4.43
2022-09-06T03:09:16.913Z,4.47
2022-09-06T03:11:43.522Z,4.68
2022-09-06T03:14:10.128Z,5.07
2022-09-06T03:16:38.467Z,5.00
2022-09-06T03:19:05.115Z,4.70
2022-09-06T03:21:32.060Z,5.00
2022-09-06T03:23:59.301Z,5.47
2022-09-06T03:26:26.383Z,5.18
2022-09-06T03:28:52.929Z,4.25
2022-09-06T03:31:19.579Z,5.00
2022-09-06T03:33:46.248Z,4.38
2022-09-06T03:36:13.761Z,6.22
2022-09-06T03:38:40.290Z,5.57
2022-09-06T03:41:06.852Z,5.47
2022-09-06T03:43:33.917Z,4.57
2022-09-06T03:46:00.597Z,5.15
2022-09-06T03:48:29.526Z,4.80
2022-09-06T03:50:58.055Z,4.88
2022-09-06T03:53:26.166Z,4.68
2022-09-06T03:55:54.572Z,4.05
2022-09-06T03:58:23.626Z,5.53
2022-09-06T04:01:00.335Z,4.82
2022-09-06T04:03:26.987Z,4.82
2022-09-06T04:05:53.536Z,5.13
2022-09-06T04:08:20.099Z,4.88
2022-09-06T04:10:50.251Z,5.13
2022-09-06T04:13:17.105Z,5.28
2022-09-06T04:15:47.661Z,5.90
2022-09-06T04:18:14.721Z,5.90
2022-09-06T04:20:41.562Z,6.70
2022-09-06T04:23:08.611Z,5.82
2022-09-06T04:25:35.374Z,6.75
2022-09-06T04:28:02.322Z,6.13
2022-09-06T04:30:29.047Z,7.03
2022-09-06T04:32:55.636Z,6.88
2022-09-06T04:35:22.517Z,6.50
2022-09-06T04:37:49.100Z,6.65
2022-09-06T04:40:15.819Z,7.03
2022-09-06T04:42:42.365Z,6.47
2022-09-06T04:45:09.591Z,7.22
2022-09-06T04:47:36.207Z,6.75
2022-09-06T04:50:02.876Z,7.68
2022-09-06T04:52:30.382Z,6.80
2022-09-06T04:54:57.144Z,7.38
2022-09-06T04:57:23.699Z,7.93
2022-09-06T04:59:50.281Z,8.05
2022-09-06T05:02:16.850Z,8.15
2022-09-06T05:04:43.525Z,8.02
2022-09-06T05:07:10.157Z,7.85
2022-09-06T05:09:36.853Z,6.70
2022-09-06T05:12:03.862Z,7.35
2022-09-06T05:14:30.934Z,7.97
2022-09-06T05:16:57.633Z,8.35
2022-09-06T05:19:24.281Z,7.32
2022-09-06T05:21:51.675Z,7.50
2022-09-06T05:24:18.489Z,7.97
2022-09-06T05:26:45.103Z,8.70
2022-09-06T05:29:11.764Z,8.05
2022-09-06T05:31:38.551Z,7.65
2022-09-06T05:34:05.620Z,8.43
2022-09-06T05:36:32.317Z,7.72
2022-09-06T05:38:59.297Z,8.55
2022-09-06T05:41:26.701Z,8.95
2022-09-06T05:43:53.301Z,8.07
2022-09-06T05:46:19.942Z,8.57
2022-09-06T05:49:00.983Z,5.95
2022-09-06T05:51:27.543Z,8.05
2022-09-06T05:53:54.126Z,7.95
2022-09-06T05:56:22.246Z,7.53
2022-09-06T05:58:48.836Z,7.78
2022-09-06T06:01:19.889Z,8.30
2022-09-06T06:04:04.031Z,7.85
2022-09-06T06:06:34.570Z,6.43
2022-09-06T06:09:01.203Z,7.40
2022-09-06T06:11:28.455Z,7.53
2022-09-06T06:13:55.314Z,7.53
2022-09-06T06:16:23.084Z,8.18
2022-09-06T06:18:52.174Z,7.63
2022-09-06T06:21:23.997Z,8.13
2022-09-06T06:23:53.416Z,7.82
2022-09-06T06:26:20.386Z,7.53
2022-09-06T06:28:47.326Z,8.27
2022-09-06T06:31:14.585Z,8.40
2022-09-06T06:33:41.642Z,7.13
2022-09-06T06:36:21.725Z,8.25
2022-09-06T06:38:49.922Z,7.75
2022-09-06T06:41:19.273Z,8.20
2022-09-06T06:43:45.850Z,9.00
2022-09-06T06:46:18.012Z,7.50
2022-09-06T06:48:45.955Z,7.68
2022-09-06T06:51:16.675Z,7.30
2022-09-06T06:53:47.708Z,8.13
2022-09-06T06:56:15.665Z,7.25
2022-09-06T06:58:42.678Z,6.35
2022-09-06T07:01:10.194Z,6.97
2022-09-06T07:03:36.908Z,7.05
2022-09-06T07:06:12.302Z,6.75
2022-09-06T07:08:39.814Z,6.05
2022-09-06T07:11:09.890Z,5.15
2022-09-06T07:13:37.053Z,5.65
2022-09-06T07:16:07.905Z,5.50
2022-09-06T07:18:35.068Z,5.00
2022-09-06T07:26:36.638Z,4.70
2022-09-06T07:29:05.283Z,5.38
2022-09-06T07:34:19.240Z,4.65
2022-09-06T07:36:45.907Z,4.25
2022-09-06T07:39:12.516Z,4.20
2022-09-06T07:41:39.133Z,3.80
2022-09-06T07:44:05.660Z,3.72
2022-09-06T07:46:32.278Z,3.90
2022-09-06T07:48:59.011Z,3.33
2022-09-06T07:51:25.607Z,2.88
2022-09-06T07:54:12.885Z,4.10
2022-09-06T07:56:41.996Z,3.35
2022-09-06T07:59:09.260Z,3.25
2022-09-06T08:01:40.377Z,3.40
2022-09-06T08:04:08.577Z,3.00
2022-09-06T08:09:25.076Z,3.33
2022-09-06T08:11:52.658Z,3.20
2022-09-06T08:14:19.919Z,2.75
2022-09-06T08:16:46.540Z,2.85
2022-09-06T08:19:13.421Z,2.90
2022-09-06T08:21:40.087Z,2.88
2022-09-06T08:24:09.621Z,2.53
2022-09-06T08:26:40.371Z,2.70
2022-09-06T08:29:08.769Z,3.40
2022-09-06T08:31:41.464Z,2.72
2022-09-06T08:34:08.655Z,2.35
2022-09-06T08:36:35.295Z,2.70
2022-09-06T08:39:05.603Z,2.17
2022-09-06T08:41:54.199Z,2.03
2022-09-06T08:47:19.454Z,2.38
2022-09-06T08:49:48.573Z,1.80
2022-09-06T08:52:34.644Z,2.00
2022-09-06T08:57:53.844Z,1.90
2022-09-06T09:00:20.688Z,1.67
2022-09-06T09:02:52.785Z,1.83
2022-09-06T09:05:34.384Z,1.55
2022-09-06T09:08:12.915Z,2.47
2022-09-06T09:10:47.435Z,2.30
2022-09-06T09:13:32.908Z,1.52
2022-09-06T09:15:59.720Z,1.42
2022-09-06T09:18:33.461Z,1.70
2022-09-06T09:21:00.344Z,1.90
2022-09-06T09:23:29.107Z,1.77
2022-09-06T09:26:00.081Z,1.98
2022-09-06T09:28:26.669Z,1.52
2022-09-06T09:30:55.756Z,1.50
2022-09-06T09:33:28.109Z,1.50
2022-09-06T09:35:58.175Z,2.45
2022-09-06T09:38:28.478Z,1.80
2022-09-06T09:40:56.431Z,1.50
2022-09-06T09:43:25.670Z,1.55
2022-09-06T09:46:18.216Z,1.65
2022-09-06T09:49:28.685Z,1.50
2022-09-06T09:52:06.071Z,1.38
2022-09-06T09:54:37.291Z,1.20
2022-09-06T09:57:17.217Z,1.42
2022-09-06T10:00:02.049Z,1.40
2022-09-06T10:02:41.381Z,1.60
2022-09-06T10:05:13.719Z,1.65
2022-09-06T10:07:49.148Z,1.30
2022-09-06T10:13:14.544Z,1.42
2022-09-06T10:15:41.574Z,1.10
2022-09-06T10:18:17.952Z,1.35
2022-09-06T10:20:51.699Z,1.30
2022-09-06T10:26:30.985Z,1.25
2022-09-06T10:29:05.875Z,0.90
2022-09-06T10:31:36.605Z,1.10
2022-09-06T10:34:33.173Z,1.30
2022-09-06T10:40:03.014Z,1.30
2022-09-06T10:42:38.779Z,1.17
2022-09-06T10:45:29.087Z,1.40
2022-09-06T10:47:58.739Z,1.42
2022-09-06T10:50:43.709Z,1.20
2022-09-06T10:53:40.826Z,1.13
2022-09-06T10:56:13.371Z,1.27
2022-09-06T11:02:07.883Z,1.45
2022-09-06T11:07:36.779Z,1.42
2022-09-06T11:10:15.604Z,1.50
2022-09-06T11:13:02.794Z,1.52
2022-09-06T11:15:37.061Z,1.90
2022-09-06T11:18:15.572Z,1.60
2022-09-06T11:20:57.831Z,1.70
2022-09-06T11:23:48.233Z,1.58
2022-09-06T11:26:29.358Z,1.63
2022-09-06T11:29:01.581Z,2.50
2022-09-06T11:34:28.651Z,2.60
2022-09-06T11:36:58.799Z,1.70
2022-09-06T11:42:45.325Z,1.45
2022-09-06T11:45:11.785Z,2.13
2022-09-06T11:47:42.781Z,1.73
2022-09-06T11:50:21.534Z,1.45
2022-09-06T11:53:06.461Z,1.80
2022-09-06T11:55:39.162Z,1.20
2022-09-06T11:58:20.814Z,1.60
2022-09-06T12:01:13.347Z,1.60
2022-09-06T12:04:05.899Z,1.50
2022-09-06T12:07:03.488Z,1.45
2022-09-06T12:12:01.299Z,1.30
2022-09-06T12:14:40.355Z,1.60
2022-09-06T12:17:09.783Z,1.27
2022-09-06T12:19:43.911Z,1.50
2022-09-06T12:22:41.302Z,1.40
2022-09-06T12:25:18.440Z,1.55
2022-09-06T12:27:56.838Z,1.67
2022-09-06T12:30:42.023Z,1.60
2022-09-06T12:33:17.295Z,1.20
2022-09-06T12:36:00.515Z,1.33
2022-09-06T12:38:28.921Z,1.70
2022-09-06T12:40:59.008Z,1.48
2022-09-06T12:43:26.244Z,1.40
2022-09-06T12:45:53.194Z,1.33
2022-09-06T12:48:31.606Z,1.20
2022-09-06T12:51:16.306Z,1.60
2022-09-06T12:53:54.963Z,1.20
2022-09-06T12:56:23.141Z,2.08
2022-09-06T12:58:49.756Z,1.60
2022-09-06T13:01:30.360Z,1.00
2022-09-06T13:04:22.999Z,1.20
2022-09-06T13:06:49.888Z,1.65
2022-09-06T13:09:20.292Z,0.90
2022-09-06T13:11:51.450Z,1.52
2022-09-06T13:14:25.738Z,2.08
2022-09-06T13:16:57.016Z,1.35
2022-09-06T13:19:38.478Z,1.10
2022-09-06T13:22:07.938Z,1.15
2022-09-06T13:24:34.449Z,1.30
2022-09-06T13:27:01.440Z,1.35
2022-09-06T13:29:32.138Z,1.13
2022-09-06T13:32:01.823Z,1.40
2022-09-06T13:34:33.285Z,1.10
2022-09-06T13:37:09.156Z,1.30
2022-09-06T13:39:40.101Z,0.90
2022-09-06T13:42:10.757Z,0.90
2022-09-06T13:44:40.570Z,1.05
2022-09-06T13:47:07.236Z,1.35
2022-09-06T13:49:33.970Z,1.10
2022-09-06T13:52:02.883Z,0.90
2022-09-06T13:54:33.262Z,0.70
2022-09-06T13:57:01.724Z,0.95
2022-09-06T13:59:28.936Z,0.82
2022-09-06T14:02:05.341Z,0.80
2022-09-06T14:04:32.470Z,0.82
2022-09-06T14:06:59.037Z,0.93
2022-09-06T14:09:25.560Z,0.80
2022-09-06T14:11:52.466Z,0.75
2022-09-06T14:14:19.435Z,1.00
2022-09-06T14:16:47.558Z,0.90
2022-09-06T14:19:14.764Z,1.08
2022-09-06T14:21:41.501Z,0.90
2022-09-06T14:24:08.117Z,1.00
2022-09-06T14:26:35.898Z,1.10
2022-09-06T14:29:03.935Z,1.08
2022-09-06T14:31:32.480Z,0.95
2022-09-06T14:33:59.594Z,0.90
2022-09-06T14:36:29.306Z,0.93
2022-09-06T14:38:58.452Z,1.08
2022-09-06T14:41:25.726Z,0.70
2022-09-06T14:43:55.164Z,2.58
2022-09-06T14:46:23.633Z,0.90
2022-09-06T14:48:59.310Z,0.68
2022-09-06T14:51:26.645Z,0.90
2022-09-06T14:53:56.640Z,0.60
2022-09-06T14:56:24.419Z,0.90
2022-09-06T14:58:51.013Z,0.60
2022-09-06T15:01:22.616Z,0.75
2022-09-06T15:03:55.873Z,0.77
2022-09-06T15:06:23.611Z,0.80
2022-09-06T15:08:50.544Z,0.73
2022-09-06T15:11:39.331Z,0.93
2022-09-06T15:14:08.990Z,0.77
2022-09-06T15:16:36.115Z,0.80
2022-09-06T15:19:03.454Z,0.73
2022-09-06T15:21:31.014Z,0.68
2022-09-06T15:23:57.977Z,0.50
2022-09-06T15:26:25.159Z,0.75
2022-09-06T15:28:52.257Z,0.50
2022-09-06T15:31:19.513Z,0.68
2022-09-06T15:33:48.868Z,0.60
2022-09-06T15:36:16.236Z,0.70
2022-09-06T15:38:46.981Z,1.00
2022-09-06T15:41:15.225Z,0.73
2022-09-06T15:43:47.072Z,0.70
2022-09-06T15:46:15.614Z,0.75
2022-09-06T15:48:50.167Z,1.20
2022-09-06T15:51:20.145Z,0.80
2022-09-06T15:53:47.324Z,0.88
2022-09-06T15:56:15.927Z,0.70
2022-09-06T15:58:43.344Z,0.60
2022-09-06T16:01:18.586Z,1.00
2022-09-06T16:06:26.738Z,0.65
2022-09-06T16:08:59.983Z,0.88
2022-09-06T16:11:28.461Z,0.70
2022-09-06T16:13:55.694Z,0.70
2022-09-06T16:16:22.782Z,0.68
2022-09-06T16:18:49.742Z,0.63
2022-09-06T16:21:21.484Z,0.77
2022-09-06T16:23:57.228Z,0.80
2022-09-06T16:26:26.598Z,0.88
2022-09-06T16:28:53.598Z,0.60
2022-09-06T16:31:21.597Z,0.60
2022-09-06T16:33:49.199Z,0.60
2022-09-06T16:36:16.680Z,0.82
2022-09-06T16:38:43.602Z,0.70
2022-09-06T16:41:22.473Z,0.80
2022-09-06T16:43:49.462Z,0.65
2022-09-06T16:46:16.426Z,5.93
2022-09-06T16:48:43.613Z,3.33
2022-09-06T16:51:17.929Z,7.57
2022-09-06T16:53:46.575Z,1.67
2022-09-06T16:56:16.113Z,8.27
2022-09-06T16:58:44.389Z,1.35
2022-09-06T17:01:11.039Z,1.17
2022-09-06T17:03:38.909Z,0.80
2022-09-06T17:06:06.808Z,0.70
2022-09-06T17:08:35.248Z,1.23
2022-09-06T17:11:08.585Z,0.70
2022-09-06T17:13:36.067Z,1.10
2022-09-06T17:16:22.508Z,0.95
2022-09-06T17:18:49.931Z,0.90
2022-09-06T17:21:16.535Z,0.95
2022-09-06T17:23:43.515Z,1.00
2022-09-06T17:26:10.492Z,0.70
2022-09-06T17:28:38.118Z,0.70
2022-09-06T17:31:05.581Z,0.90
2022-09-06T17:33:33.764Z,0.98
2022-09-06T17:36:16.940Z,0.88
2022-09-06T17:38:47.886Z,0.90
2022-09-06T17:41:28.234Z,1.38
2022-09-06T17:43:55.384Z,0.88
2022-09-06T17:46:28.381Z,0.90
2022-09-06T17:48:56.074Z,1.17
2022-09-06T17:51:23.043Z,0.90
2022-09-06T17:53:49.670Z,1.10
2022-09-06T17:56:18.221Z,0.88
2022-09-06T17:58:53.988Z,1.00
2022-09-06T18:01:21.505Z,0.98
2022-09-06T18:03:48.221Z,1.35
2022-09-06T18:06:19.893Z,1.30
2022-09-06T18:08:47.916Z,1.50
2022-09-06T18:11:17.949Z,1.10
2022-09-06T18:13:45.105Z,1.10
2022-09-06T18:16:14.037Z,1.30
2022-09-06T18:18:41.651Z,0.93
2022-09-06T18:21:08.209Z,1.20
2022-09-06T18:23:35.768Z,1.65
2022-09-06T18:26:08.094Z,1.00
2022-09-06T18:28:36.718Z,1.50
2022-09-06T18:31:18.568Z,1.42
2022-09-06T18:33:45.755Z,1.13
2022-09-06T18:36:15.513Z,1.20
2022-09-06T18:38:45.385Z,1.40
2022-09-06T18:41:34.121Z,1.60
2022-09-06T18:44:05.220Z,1.60
2022-09-06T18:46:34.030Z,1.40
2022-09-06T18:49:00.870Z,1.50
2022-09-06T18:51:28.084Z,1.50
2022-09-06T18:53:57.665Z,1.50
2022-09-06T18:56:25.199Z,1.40
2022-09-06T18:58:58.806Z,1.75
2022-09-06T19:01:29.256Z,1.70
2022-09-06T19:04:00.541Z,2.10
2022-09-06T19:06:29.313Z,1.75
2022-09-06T19:09:04.523Z,1.70
2022-09-06T19:11:31.687Z,1.73
2022-09-06T19:13:58.422Z,1.90
2022-09-06T19:16:27.466Z,2.35
2022-09-06T19:18:58.550Z,1.80
2022-09-06T19:21:25.948Z,1.65
2022-09-06T19:24:01.462Z,1.80
2022-09-06T19:29:01.027Z,2.03
2022-09-06T19:31:36.843Z,2.05
2022-09-06T19:34:04.245Z,2.13
2022-09-06T19:36:31.903Z,2.00
2022-09-06T19:39:04.327Z,1.80
2022-09-06T19:41:33.903Z,1.80
2022-09-06T19:44:01.581Z,1.60
2022-09-06T19:46:28.235Z,1.98
2022-09-06T19:48:58.774Z,1.58
2022-09-06T19:51:25.682Z,1.88
2022-09-06T19:53:54.726Z,1.48
2022-09-06T19:56:27.169Z,2.08
2022-09-06T19:58:55.708Z,2.47
2022-09-06T20:01:24.072Z,1.92
2022-09-06T20:03:51.457Z,1.75
2022-09-06T20:06:18.418Z,1.67
2022-09-06T20:08:50.496Z,2.05
2022-09-06T20:11:18.426Z,1.58
2022-09-06T20:13:45.449Z,1.75
2022-09-06T20:16:14.199Z,1.60
2022-09-06T20:18:41.084Z,2.03
2022-09-06T20:21:08.397Z,1.45
2022-09-06T20:23:35.651Z,2.22
2022-09-06T20:26:08.070Z,1.10
2022-09-06T20:28:35.248Z,1.45
2022-09-06T20:31:06.238Z,1.48
2022-09-06T20:33:33.806Z,1.50
2022-09-06T20:36:05.368Z,2.15
2022-09-06T20:38:34.092Z,1.48
2022-09-06T20:41:12.186Z,1.58
2022-09-06T20:43:39.876Z,1.13
2022-09-06T20:46:14.688Z,1.52
2022-09-06T20:48:44.854Z,1.35
2022-09-06T20:51:19.346Z,1.30
2022-09-06T20:53:54.733Z,1.60
2022-09-06T20:56:24.817Z,1.42
2022-09-06T20:59:02.510Z,1.30
2022-09-06T21:01:31.674Z,1.73
2022-09-06T21:04:00.036Z,1.73
2022-09-06T21:06:29.187Z,1.50
2022-09-06T21:08:56.792Z,1.95
2022-09-06T21:11:23.968Z,2.13
2022-09-06T21:13:52.548Z,1.42
2022-09-06T21:16:24.187Z,1.58
2022-09-06T21:18:56.153Z,1.40
2022-09-06T21:21:23.721Z,1.50
2022-09-06T21:23:50.300Z,1.30
2022-09-06T21:26:17.568Z,1.50
2022-09-06T21:28:45.428Z,1.65
2022-09-06T21:31:23.842Z,1.67
2022-09-06T21:33:55.378Z,1.95
2022-09-06T21:36:29.204Z,0.93
2022-09-06T21:39:01.662Z,1.15
2022-09-06T21:41:29.828Z,0.90
2022-09-06T21:43:58.510Z,0.90
2022-09-06T21:46:31.715Z,1.20
2022-09-06T21:49:01.591Z,1.27
2022-09-06T21:51:28.203Z,1.40
2022-09-06T21:53:56.904Z,1.48
2022-09-06T21:56:24.201Z,1.70
2022-09-06T21:58:52.996Z,0.90
2022-09-06T22:01:19.660Z,0.90
2022-09-06T22:03:46.319Z,1.10
2022-09-06T22:06:16.932Z,0.88
2022-09-06T22:08:43.910Z,0.80
2022-09-06T22:11:23.309Z,0.88
2022-09-06T22:13:51.031Z,1.25
2022-09-06T22:16:20.223Z,0.88
2022-09-06T22:18:48.836Z,0.68
2022-09-06T22:21:19.965Z,1.00
2022-09-06T22:24:01.699Z,0.80
2022-09-06T22:26:30.537Z,0.80
2022-09-06T22:28:59.916Z,0.80
2022-09-06T22:31:28.445Z,1.08
2022-09-06T22:33:55.327Z,0.80
2022-09-06T22:36:23.758Z,0.90
2022-09-06T22:38:56.170Z,0.73
2022-09-06T22:41:28.095Z,0.70
2022-09-06T22:43:55.060Z,0.98
2022-09-06T22:46:21.747Z,1.08
2022-09-06T22:48:49.176Z,1.02
2022-09-06T22:51:16.429Z,0.80
2022-09-06T22:53:43.076Z,1.00
2022-09-06T22:56:09.692Z,1.02
2022-09-06T22:58:36.302Z,1.08
2022-09-06T23:01:11.714Z,1.00
2022-09-06T23:03:38.926Z,0.90
2022-09-06T23:06:06.164Z,0.75
2022-09-06T23:08:34.685Z,0.70
2022-09-06T23:11:06.910Z,0.80
2022-09-06T23:13:33.892Z,0.70
2022-09-06T23:16:05.958Z,1.42
2022-09-06T23:18:32.700Z,1.67
2022-09-06T23:21:14.021Z,1.88
2022-09-06T23:23:41.618Z,0.95
2022-09-06T23:26:13.573Z,1.13
2022-09-06T23:28:40.550Z,1.00
2022-09-06T23:31:10.277Z,0.85
2022-09-06T23:33:37.165Z,0.70
2022-09-06T23:36:09.513Z,0.85
2022-09-06T23:38:37.815Z,0.80
2022-09-06T23:41:05.901Z,1.05
2022-09-06T23:43:32.755Z,0.88
2022-09-06T23:45:59.346Z,0.90
2022-09-06T23:48:26.021Z,1.02
2022-09-06T23:50:52.692Z,1.10
2022-09-06T23:53:19.507Z,2.15
2022-09-06T23:55:46.181Z,1.00
2022-09-06T23:58:13.338Z,0.95
